Airfield :
LOGIN :

Register | Disclaimer

   EN    FR    IT 

 










Legend :    VFR   Marginal VFR   IFR   Intensive IFR   Very Intensive IFR
Visi :
Ceiling :
>= 8 km
>= 3000ft
5 to 8 km
1000 to 3000 ft
1500m to 5 km
500 to 1000 ft
800 to 1500m
200 to 500 ft
< 800m
< 200 ft
Symbols :   Thunderstorms  Fog  Heavy snow  Heavy precipitations  Wind > 20 kt
SIGMETs :     Misc.  Thunderstorms  Icing  Turbulence  Mountain Waves  Volcanic Ashes







- Airport Elevation : 100 ft


EBDT - Schaffen

CURRENT METAR :
  • 202155Z AUTO 11006KT 9999 SCT041/// 03/M00 Q1008 BLU

EXPIRED METARs :
  • 202125Z AUTO 11008KT 9999 BKN039/// OVC048/// 04/M00 Q1007 BLU
  • 202055Z AUTO 11006KT 9999 FEW038/// BKN048/// BKN095/// 03/M01 Q1007 BLU
  • 202025Z AUTO 10006KT 9999 SCT039/// BKN044/// BKN055/// 04/M01 Q1007 BLU
  • 201955Z AUTO 09006KT 9999 -RA SCT039/// OVC080/// 03/M01 Q1006 BLU
  • 201925Z AUTO 08007KT 9999 NCD 03/M01 Q1006 BLU
  • 201855Z AUTO 09007KT 9999 FEW034/// 04/M01 Q1006 BLU

TAF TAF EBDT
Valid from the 20 at 19:00 until the 21 at 07:00 UTC


201541Z 2019/2107 09007KT 9999 FEW040
PROB30
TEMPO 2022/2103 6000 -RA -RASN BKN028
No reported NOTAMs for that airfield.



MET'MAP, your aeronautical weather chart ! - Copyright ORBIFLY December 2007 - Disclaimer

ORBIFLY MET'MAP TEAM :

Programming & Development : Alexandra Zaïnal
Concept & Development : Baudouin d'Aumeries
Co-Development & Prog : Marc-Olivier Méhu
Technical & hardware support : Manuel Goepfert

Contact : metmap@orbifly.com




SOURCES & CREDITS :

   NOAA